sensor_id;sensor_type;location;lat;lon;timestamp;temperature;humidity
23147;DHT22;11742;53.532;-1.478;2022-09-09T00:02:21;21.80;70.40
23147;DHT22;11742;53.532;-1.478;2022-09-09T00:04:59;21.80;70.40
23147;DHT22;11742;53.532;-1.478;2022-09-09T00:07:49;21.70;70.40
23147;DHT22;11742;53.532;-1.478;2022-09-09T00:10:29;21.70;70.30
23147;DHT22;11742;53.532;-1.478;2022-09-09T00:13:18;21.70;70.40
23147;DHT22;11742;53.532;-1.478;2022-09-09T00:16:04;21.70;70.40
23147;DHT22;11742;53.532;-1.478;2022-09-09T00:21:34;21.70;70.40
23147;DHT22;11742;53.532;-1.478;2022-09-09T00:24:04;21.70;70.40
23147;DHT22;11742;53.532;-1.478;2022-09-09T00:26:38;21.70;70.40
23147;DHT22;11742;53.532;-1.478;2022-09-09T00:29:20;21.70;70.40
23147;DHT22;11742;53.532;-1.478;2022-09-09T00:31:51;21.70;70.50
23147;DHT22;11742;53.532;-1.478;2022-09-09T00:34:22;21.70;70.50
23147;DHT22;11742;53.532;-1.478;2022-09-09T00:36:50;21.70;70.50
23147;DHT22;11742;53.532;-1.478;2022-09-09T00:39:42;21.70;70.50
23147;DHT22;11742;53.532;-1.478;2022-09-09T00:42:23;21.70;70.50
23147;DHT22;11742;53.532;-1.478;2022-09-09T00:47:45;21.70;70.50
23147;DHT22;11742;53.532;-1.478;2022-09-09T00:53:51;21.70;70.50
23147;DHT22;11742;53.532;-1.478;2022-09-09T00:55:52;21.70;70.50
23147;DHT22;11742;53.532;-1.478;2022-09-09T00:58:19;21.70;70.50
23147;DHT22;11742;53.532;-1.478;2022-09-09T01:00:49;21.60;70.50
23147;DHT22;11742;53.532;-1.478;2022-09-09T01:16:42;21.60;70.50
23147;DHT22;11742;53.532;-1.478;2022-09-09T01:19:09;21.60;70.50
23147;DHT22;11742;53.532;-1.478;2022-09-09T01:22:03;21.60;70.50
23147;DHT22;11742;53.532;-1.478;2022-09-09T01:24:40;21.60;70.50
23147;DHT22;11742;53.532;-1.478;2022-09-09T01:27:08;21.60;70.50
23147;DHT22;11742;53.532;-1.478;2022-09-09T01:29:34;21.60;70.50
23147;DHT22;11742;53.532;-1.478;2022-09-09T01:32:40;21.60;70.50
23147;DHT22;11742;53.532;-1.478;2022-09-09T01:37:57;21.60;70.50
23147;DHT22;11742;53.532;-1.478;2022-09-09T01:40:23;21.60;70.50
23147;DHT22;11742;53.532;-1.478;2022-09-09T01:42:49;21.60;70.50
23147;DHT22;11742;53.532;-1.478;2022-09-09T01:45:15;21.60;70.50
23147;DHT22;11742;53.532;-1.478;2022-09-09T01:47:41;21.60;70.50
23147;DHT22;11742;53.532;-1.478;2022-09-09T01:50:10;21.60;70.60
23147;DHT22;11742;53.532;-1.478;2022-09-09T01:52:38;21.60;70.50
23147;DHT22;11742;53.532;-1.478;2022-09-09T01:55:05;21.50;70.50
23147;DHT22;11742;53.532;-1.478;2022-09-09T01:57:44;21.50;70.50
23147;DHT22;11742;53.532;-1.478;2022-09-09T02:00:14;21.60;70.60
23147;DHT22;11742;53.532;-1.478;2022-09-09T02:02:46;21.60;70.60
23147;DHT22;11742;53.532;-1.478;2022-09-09T02:05:38;21.50;70.50
23147;DHT22;11742;53.532;-1.478;2022-09-09T02:13:18;21.50;70.50
23147;DHT22;11742;53.532;-1.478;2022-09-09T02:18:12;21.50;70.50
23147;DHT22;11742;53.532;-1.478;2022-09-09T02:20:39;21.50;71.30
23147;DHT22;11742;53.532;-1.478;2022-09-09T02:23:07;21.50;70.50
23147;DHT22;11742;53.532;-1.478;2022-09-09T02:25:35;21.50;70.50
23147;DHT22;11742;53.532;-1.478;2022-09-09T02:28:04;21.50;70.50
23147;DHT22;11742;53.532;-1.478;2022-09-09T02:30:32;21.50;70.50
23147;DHT22;11742;53.532;-1.478;2022-09-09T02:33:02;21.50;70.50
23147;DHT22;11742;53.532;-1.478;2022-09-09T02:35:30;21.50;70.50
23147;DHT22;11742;53.532;-1.478;2022-09-09T02:38:01;21.50;70.50
23147;DHT22;11742;53.532;-1.478;2022-09-09T02:40:27;21.50;70.50
23147;DHT22;11742;53.532;-1.478;2022-09-09T02:42:54;21.50;70.50
23147;DHT22;11742;53.532;-1.478;2022-09-09T02:45:24;21.50;70.50
23147;DHT22;11742;53.532;-1.478;2022-09-09T02:48:16;21.50;70.50
23147;DHT22;11742;53.532;-1.478;2022-09-09T02:51:08;21.50;70.50
23147;DHT22;11742;53.532;-1.478;2022-09-09T02:59:36;21.50;70.60
23147;DHT22;11742;53.532;-1.478;2022-09-09T03:02:03;21.50;70.50
23147;DHT22;11742;53.532;-1.478;2022-09-09T03:04:29;21.50;70.60
23147;DHT22;11742;53.532;-1.478;2022-09-09T03:06:56;21.50;70.60
23147;DHT22;11742;53.532;-1.478;2022-09-09T03:09:22;21.50;70.60
23147;DHT22;11742;53.532;-1.478;2022-09-09T03:11:48;21.50;70.60
23147;DHT22;11742;53.532;-1.478;2022-09-09T03:14:15;21.50;70.60
23147;DHT22;11742;53.532;-1.478;2022-09-09T03:16:41;21.40;70.60
23147;DHT22;11742;53.532;-1.478;2022-09-09T03:19:08;21.50;70.60
23147;DHT22;11742;53.532;-1.478;2022-09-09T03:21:34;21.50;70.60
23147;DHT22;11742;53.532;-1.478;2022-09-09T03:24:01;21.40;70.60
23147;DHT22;11742;53.532;-1.478;2022-09-09T03:26:29;21.40;70.60
23147;DHT22;11742;53.532;-1.478;2022-09-09T03:28:56;21.40;70.60
23147;DHT22;11742;53.532;-1.478;2022-09-09T03:31:22;21.40;70.60
23147;DHT22;11742;53.532;-1.478;2022-09-09T03:33:47;21.40;70.60
23147;DHT22;11742;53.532;-1.478;2022-09-09T03:36:14;21.40;70.60
23147;DHT22;11742;53.532;-1.478;2022-09-09T03:38:40;21.40;70.60
23147;DHT22;11742;53.532;-1.478;2022-09-09T03:41:06;21.40;70.60
23147;DHT22;11742;53.532;-1.478;2022-09-09T03:43:33;21.40;70.60
23147;DHT22;11742;53.532;-1.478;2022-09-09T03:45:59;21.40;70.60
23147;DHT22;11742;53.532;-1.478;2022-09-09T03:48:25;21.40;70.60
23147;DHT22;11742;53.532;-1.478;2022-09-09T03:50:54;21.40;70.70
23147;DHT22;11742;53.532;-1.478;2022-09-09T03:53:22;21.40;70.60
23147;DHT22;11742;53.532;-1.478;2022-09-09T03:55:50;21.40;70.60
23147;DHT22;11742;53.532;-1.478;2022-09-09T03:58:23;21.40;70.70
23147;DHT22;11742;53.532;-1.478;2022-09-09T04:01:04;21.40;70.70
23147;DHT22;11742;53.532;-1.478;2022-09-09T04:03:31;21.40;70.70
23147;DHT22;11742;53.532;-1.478;2022-09-09T04:05:58;21.40;70.70
23147;DHT22;11742;53.532;-1.478;2022-09-09T04:08:24;21.40;70.70
23147;DHT22;11742;53.532;-1.478;2022-09-09T04:10:51;21.40;70.70
23147;DHT22;11742;53.532;-1.478;2022-09-09T04:13:17;21.40;70.70
23147;DHT22;11742;53.532;-1.478;2022-09-09T04:15:44;21.30;70.60
23147;DHT22;11742;53.532;-1.478;2022-09-09T04:18:15;21.30;70.60
23147;DHT22;11742;53.532;-1.478;2022-09-09T04:20:41;21.30;70.60
23147;DHT22;11742;53.532;-1.478;2022-09-09T04:23:08;21.30;70.60
23147;DHT22;11742;53.532;-1.478;2022-09-09T04:25:34;21.30;70.60
23147;DHT22;11742;53.532;-1.478;2022-09-09T04:28:00;21.30;70.70
23147;DHT22;11742;53.532;-1.478;2022-09-09T04:30:26;21.30;70.70
23147;DHT22;11742;53.532;-1.478;2022-09-09T04:32:52;21.30;71.60
23147;DHT22;11742;53.532;-1.478;2022-09-09T04:35:18;21.30;70.70
23147;DHT22;11742;53.532;-1.478;2022-09-09T04:37:45;21.30;70.70
23147;DHT22;11742;53.532;-1.478;2022-09-09T04:40:11;21.30;70.70
23147;DHT22;11742;53.532;-1.478;2022-09-09T04:42:38;21.30;70.70
23147;DHT22;11742;53.532;-1.478;2022-09-09T04:45:05;21.30;70.70
23147;DHT22;11742;53.532;-1.478;2022-09-09T04:47:32;21.30;70.70
23147;DHT22;11742;53.532;-1.478;2022-09-09T04:49:58;21.30;70.70
23147;DHT22;11742;53.532;-1.478;2022-09-09T04:52:24;21.30;70.70
23147;DHT22;11742;53.532;-1.478;2022-09-09T04:54:50;21.30;70.70
23147;DHT22;11742;53.532;-1.478;2022-09-09T04:57:15;21.30;70.70
23147;DHT22;11742;53.532;-1.478;2022-09-09T04:59:41;21.30;70.70
23147;DHT22;11742;53.532;-1.478;2022-09-09T05:02:07;21.30;70.70
23147;DHT22;11742;53.532;-1.478;2022-09-09T05:04:32;21.30;70.70
23147;DHT22;11742;53.532;-1.478;2022-09-09T05:06:58;21.30;70.70
23147;DHT22;11742;53.532;-1.478;2022-09-09T05:09:25;21.20;70.70
23147;DHT22;11742;53.532;-1.478;2022-09-09T05:11:50;21.20;70.70
23147;DHT22;11742;53.532;-1.478;2022-09-09T05:14:17;21.30;70.80
23147;DHT22;11742;53.532;-1.478;2022-09-09T05:16:44;21.30;70.80
23147;DHT22;11742;53.532;-1.478;2022-09-09T05:19:10;21.30;70.80
23147;DHT22;11742;53.532;-1.478;2022-09-09T05:21:36;21.20;70.70
23147;DHT22;11742;53.532;-1.478;2022-09-09T05:24:02;21.20;70.70
23147;DHT22;11742;53.532;-1.478;2022-09-09T05:26:28;21.20;70.70
23147;DHT22;11742;53.532;-1.478;2022-09-09T05:28:55;21.20;70.70
23147;DHT22;11742;53.532;-1.478;2022-09-09T05:31:21;21.20;70.70
23147;DHT22;11742;53.532;-1.478;2022-09-09T05:33:47;21.20;70.70
23147;DHT22;11742;53.532;-1.478;2022-09-09T05:36:19;21.20;70.70
23147;DHT22;11742;53.532;-1.478;2022-09-09T05:38:46;21.20;70.80
23147;DHT22;11742;53.532;-1.478;2022-09-09T05:41:12;21.20;70.70
23147;DHT22;11742;53.532;-1.478;2022-09-09T05:43:40;21.20;70.70
23147;DHT22;11742;53.532;-1.478;2022-09-09T05:46:19;21.20;70.70
23147;DHT22;11742;53.532;-1.478;2022-09-09T05:48:46;21.20;70.70
23147;DHT22;11742;53.532;-1.478;2022-09-09T05:51:14;21.20;70.80
23147;DHT22;11742;53.532;-1.478;2022-09-09T05:53:44;21.20;70.70
23147;DHT22;11742;53.532;-1.478;2022-09-09T05:56:12;21.20;70.70
23147;DHT22;11742;53.532;-1.478;2022-09-09T05:58:39;21.20;70.80
23147;DHT22;11742;53.532;-1.478;2022-09-09T06:01:08;21.20;70.80
23147;DHT22;11742;53.532;-1.478;2022-09-09T06:03:36;21.20;70.80
23147;DHT22;11742;53.532;-1.478;2022-09-09T06:06:05;21.10;71.10
23147;DHT22;11742;53.532;-1.478;2022-09-09T06:08:32;21.00;71.70
23147;DHT22;11742;53.532;-1.478;2022-09-09T06:11:03;21.00;72.00
23147;DHT22;11742;53.532;-1.478;2022-09-09T06:13:29;21.00;72.20
23147;DHT22;11742;53.532;-1.478;2022-09-09T06:15:55;21.00;72.40
23147;DHT22;11742;53.532;-1.478;2022-09-09T06:18:21;21.00;72.50
23147;DHT22;11742;53.532;-1.478;2022-09-09T06:20:58;21.00;72.60
23147;DHT22;11742;53.532;-1.478;2022-09-09T06:23:25;21.00;72.60
23147;DHT22;11742;53.532;-1.478;2022-09-09T06:25:51;21.00;72.50
23147;DHT22;11742;53.532;-1.478;2022-09-09T06:28:18;20.90;72.40
23147;DHT22;11742;53.532;-1.478;2022-09-09T06:30:44;21.00;72.40
23147;DHT22;11742;53.532;-1.478;2022-09-09T06:33:10;21.00;72.40
23147;DHT22;11742;53.532;-1.478;2022-09-09T06:35:36;21.00;72.40
23147;DHT22;11742;53.532;-1.478;2022-09-09T06:38:01;21.00;72.30
23147;DHT22;11742;53.532;-1.478;2022-09-09T06:40:27;21.00;72.30
23147;DHT22;11742;53.532;-1.478;2022-09-09T06:42:53;21.00;72.30
23147;DHT22;11742;53.532;-1.478;2022-09-09T06:45:18;21.00;72.30
23147;DHT22;11742;53.532;-1.478;2022-09-09T06:47:44;21.00;72.20
23147;DHT22;11742;53.532;-1.478;2022-09-09T06:50:10;21.00;72.30
23147;DHT22;11742;53.532;-1.478;2022-09-09T06:52:36;21.00;72.20
23147;DHT22;11742;53.532;-1.478;2022-09-09T06:55:03;21.00;72.20
23147;DHT22;11742;53.532;-1.478;2022-09-09T06:57:29;21.00;72.10
23147;DHT22;11742;53.532;-1.478;2022-09-09T06:59:55;21.00;72.20
23147;DHT22;11742;53.532;-1.478;2022-09-09T07:02:20;21.00;72.10
23147;DHT22;11742;53.532;-1.478;2022-09-09T07:04:47;21.00;72.20
23147;DHT22;11742;53.532;-1.478;2022-09-09T07:07:12;21.00;72.20
23147;DHT22;11742;53.532;-1.478;2022-09-09T07:09:40;21.00;72.20
23147;DHT22;11742;53.532;-1.478;2022-09-09T07:12:06;21.00;72.10
23147;DHT22;11742;53.532;-1.478;2022-09-09T07:14:32;21.00;72.10
23147;DHT22;11742;53.532;-1.478;2022-09-09T07:16:59;21.00;72.10
23147;DHT22;11742;53.532;-1.478;2022-09-09T07:19:25;21.00;72.10
23147;DHT22;11742;53.532;-1.478;2022-09-09T07:21:51;21.10;72.10
23147;DHT22;11742;53.532;-1.478;2022-09-09T07:24:17;21.10;72.20
23147;DHT22;11742;53.532;-1.478;2022-09-09T07:26:43;21.00;72.20
23147;DHT22;11742;53.532;-1.478;2022-09-09T07:29:09;21.00;72.10
23147;DHT22;11742;53.532;-1.478;2022-09-09T07:31:38;21.00;72.10
23147;DHT22;11742;53.532;-1.478;2022-09-09T07:34:05;21.10;72.20
23147;DHT22;11742;53.532;-1.478;2022-09-09T07:36:33;21.10;72.20
23147;DHT22;11742;53.532;-1.478;2022-09-09T07:39:02;21.10;72.20
23147;DHT22;11742;53.532;-1.478;2022-09-09T07:41:34;21.10;72.20
23147;DHT22;11742;53.532;-1.478;2022-09-09T07:44:06;21.10;72.20
23147;DHT22;11742;53.532;-1.478;2022-09-09T07:46:32;21.10;72.20
23147;DHT22;11742;53.532;-1.478;2022-09-09T07:48:59;21.10;72.20
23147;DHT22;11742;53.532;-1.478;2022-09-09T07:51:28;21.20;72.20
23147;DHT22;11742;53.532;-1.478;2022-09-09T07:53:56;21.20;72.20
23147;DHT22;11742;53.532;-1.478;2022-09-09T07:56:24;21.20;72.20
23147;DHT22;11742;53.532;-1.478;2022-09-09T07:58:52;21.20;72.20
23147;DHT22;11742;53.532;-1.478;2022-09-09T08:01:24;21.20;72.20
23147;DHT22;11742;53.532;-1.478;2022-09-09T08:03:56;21.20;72.20
23147;DHT22;11742;53.532;-1.478;2022-09-09T08:06:26;21.20;72.20
23147;DHT22;11742;53.532;-1.478;2022-09-09T08:08:52;21.20;72.20
23147;DHT22;11742;53.532;-1.478;2022-09-09T08:11:18;21.20;72.20
23147;DHT22;11742;53.532;-1.478;2022-09-09T08:13:44;21.20;72.20
23147;DHT22;11742;53.532;-1.478;2022-09-09T08:16:13;21.20;72.20
23147;DHT22;11742;53.532;-1.478;2022-09-09T08:18:39;21.20;72.20
23147;DHT22;11742;53.532;-1.478;2022-09-09T08:21:14;21.20;72.30
23147;DHT22;11742;53.532;-1.478;2022-09-09T08:23:42;21.20;72.20
23147;DHT22;11742;53.532;-1.478;2022-09-09T08:26:14;21.20;72.20
23147;DHT22;11742;53.532;-1.478;2022-09-09T08:28:41;21.30;72.30
23147;DHT22;11742;53.532;-1.478;2022-09-09T08:31:18;21.20;72.20
23147;DHT22;11742;53.532;-1.478;2022-09-09T08:33:44;21.30;72.30
23147;DHT22;11742;53.532;-1.478;2022-09-09T08:36:13;21.20;72.20
23147;DHT22;11742;53.532;-1.478;2022-09-09T08:38:41;21.30;72.30
23147;DHT22;11742;53.532;-1.478;2022-09-09T08:43:47;21.30;72.40
23147;DHT22;11742;53.532;-1.478;2022-09-09T08:51:46;21.30;72.40
23147;DHT22;11742;53.532;-1.478;2022-09-09T08:54:13;21.30;72.40
23147;DHT22;11742;53.532;-1.478;2022-09-09T08:56:39;21.40;72.50
23147;DHT22;11742;53.532;-1.478;2022-09-09T08:59:04;21.40;72.50
23147;DHT22;11742;53.532;-1.478;2022-09-09T09:01:57;21.40;72.50
23147;DHT22;11742;53.532;-1.478;2022-09-09T09:12:44;21.40;72.60
23147;DHT22;11742;53.532;-1.478;2022-09-09T09:15:30;21.40;72.70
23147;DHT22;11742;53.532;-1.478;2022-09-09T09:17:56;21.50;72.80
23147;DHT22;11742;53.532;-1.478;2022-09-09T09:23:40;21.50;72.80
23147;DHT22;11742;53.532;-1.478;2022-09-09T09:26:09;21.50;72.90
23147;DHT22;11742;53.532;-1.478;2022-09-09T09:28:36;21.60;73.00
23147;DHT22;11742;53.532;-1.478;2022-09-09T09:31:08;21.60;73.00
23147;DHT22;11742;53.532;-1.478;2022-09-09T09:34:03;21.60;73.00
23147;DHT22;11742;53.532;-1.478;2022-09-09T09:36:40;21.60;73.10
23147;DHT22;11742;53.532;-1.478;2022-09-09T09:39:07;21.70;73.20
23147;DHT22;11742;53.532;-1.478;2022-09-09T09:41:36;21.70;73.20
23147;DHT22;11742;53.532;-1.478;2022-09-09T09:44:05;21.70;73.30
23147;DHT22;11742;53.532;-1.478;2022-09-09T09:46:31;21.70;73.30
23147;DHT22;11742;53.532;-1.478;2022-09-09T09:49:02;21.80;73.60
23147;DHT22;11742;53.532;-1.478;2022-09-09T09:51:31;21.80;74.20
23147;DHT22;11742;53.532;-1.478;2022-09-09T09:56:39;21.70;74.90
23147;DHT22;11742;53.532;-1.478;2022-09-09T09:59:05;21.80;75.00
23147;DHT22;11742;53.532;-1.478;2022-09-09T10:01:44;21.80;75.10
23147;DHT22;11742;53.532;-1.478;2022-09-09T10:04:21;21.80;75.10
23147;DHT22;11742;53.532;-1.478;2022-09-09T10:06:49;21.90;75.20
23147;DHT22;11742;53.532;-1.478;2022-09-09T10:09:29;21.90;75.10
23147;DHT22;11742;53.532;-1.478;2022-09-09T10:31:24;22.20;75.30
23147;DHT22;11742;53.532;-1.478;2022-09-09T10:34:16;22.30;75.40
23147;DHT22;11742;53.532;-1.478;2022-09-09T10:36:47;22.30;75.50
23147;DHT22;11742;53.532;-1.478;2022-09-09T10:39:36;22.40;75.50
23147;DHT22;11742;53.532;-1.478;2022-09-09T10:42:14;22.40;75.50
23147;DHT22;11742;53.532;-1.478;2022-09-09T10:44:49;22.50;75.50
23147;DHT22;11742;53.532;-1.478;2022-09-09T10:50:53;22.60;75.70
23147;DHT22;11742;53.532;-1.478;2022-09-09T10:53:41;22.60;75.70
23147;DHT22;11742;53.532;-1.478;2022-09-09T10:56:16;22.70;75.60
23147;DHT22;11742;53.532;-1.478;2022-09-09T10:58:55;22.80;75.70
23147;DHT22;11742;53.532;-1.478;2022-09-09T11:02:13;22.80;75.70
23147;DHT22;11742;53.532;-1.478;2022-09-09T11:04:27;22.80;75.70
23147;DHT22;11742;53.532;-1.478;2022-09-09T11:06:56;22.90;75.70
23147;DHT22;11742;53.532;-1.478;2022-09-09T11:09:26;22.90;75.60
23147;DHT22;11742;53.532;-1.478;2022-09-09T11:11:55;22.90;75.60
23147;DHT22;11742;53.532;-1.478;2022-09-09T11:14:36;22.90;75.50
23147;DHT22;11742;53.532;-1.478;2022-09-09T11:17:22;23.00;75.60
23147;DHT22;11742;53.532;-1.478;2022-09-09T11:19:49;23.00;75.50
23147;DHT22;11742;53.532;-1.478;2022-09-09T11:22:37;23.10;75.50
23147;DHT22;11742;53.532;-1.478;2022-09-09T11:36:05;23.20;75.40
23147;DHT22;11742;53.532;-1.478;2022-09-09T11:38:45;23.30;75.40
23147;DHT22;11742;53.532;-1.478;2022-09-09T11:41:14;23.30;75.30
23147;DHT22;11742;53.532;-1.478;2022-09-09T11:46:13;23.40;75.30
23147;DHT22;11742;53.532;-1.478;2022-09-09T11:48:45;23.40;75.30
23147;DHT22;11742;53.532;-1.478;2022-09-09T11:54:03;23.40;75.20
23147;DHT22;11742;53.532;-1.478;2022-09-09T11:56:45;23.50;75.30
23147;DHT22;11742;53.532;-1.478;2022-09-09T11:59:22;23.50;75.20
23147;DHT22;11742;53.532;-1.478;2022-09-09T12:09:43;23.70;75.20
23147;DHT22;11742;53.532;-1.478;2022-09-09T12:14:56;23.70;75.20
23147;DHT22;11742;53.532;-1.478;2022-09-09T12:17:23;23.80;75.30
23147;DHT22;11742;53.532;-1.478;2022-09-09T12:33:40;23.90;75.00
23147;DHT22;11742;53.532;-1.478;2022-09-09T12:36:16;23.90;75.00
23147;DHT22;11742;53.532;-1.478;2022-09-09T12:38:43;24.00;74.90
23147;DHT22;11742;53.532;-1.478;2022-09-09T12:41:27;24.00;74.90
23147;DHT22;11742;53.532;-1.478;2022-09-09T12:44:09;24.00;74.90
23147;DHT22;11742;53.532;-1.478;2022-09-09T12:46:41;24.00;74.90
23147;DHT22;11742;53.532;-1.478;2022-09-09T12:51:51;24.10;75.10
23147;DHT22;11742;53.532;-1.478;2022-09-09T12:54:18;24.10;75.10
23147;DHT22;11742;53.532;-1.478;2022-09-09T12:56:46;24.10;75.20
23147;DHT22;11742;53.532;-1.478;2022-09-09T12:59:35;24.20;75.20
23147;DHT22;11742;53.532;-1.478;2022-09-09T13:02:01;24.20;75.20
23147;DHT22;11742;53.532;-1.478;2022-09-09T13:04:27;24.20;75.20
23147;DHT22;11742;53.532;-1.478;2022-09-09T13:06:53;24.20;75.10
23147;DHT22;11742;53.532;-1.478;2022-09-09T13:09:19;24.20;75.10
23147;DHT22;11742;53.532;-1.478;2022-09-09T13:11:52;24.30;75.10
23147;DHT22;11742;53.532;-1.478;2022-09-09T13:14:33;24.30;75.00
23147;DHT22;11742;53.532;-1.478;2022-09-09T13:17:04;24.30;75.00
23147;DHT22;11742;53.532;-1.478;2022-09-09T13:19:38;24.30;74.90
23147;DHT22;11742;53.532;-1.478;2022-09-09T13:22:18;24.30;74.80
23147;DHT22;11742;53.532;-1.478;2022-09-09T13:24:45;24.30;74.70
23147;DHT22;11742;53.532;-1.478;2022-09-09T13:28:02;24.30;74.70
23147;DHT22;11742;53.532;-1.478;2022-09-09T13:30:33;24.30;74.50
23147;DHT22;11742;53.532;-1.478;2022-09-09T13:33:02;24.30;74.50
23147;DHT22;11742;53.532;-1.478;2022-09-09T13:35:28;24.30;74.40
23147;DHT22;11742;53.532;-1.478;2022-09-09T13:37:55;24.30;74.40
23147;DHT22;11742;53.532;-1.478;2022-09-09T13:40:22;24.30;74.40
23147;DHT22;11742;53.532;-1.478;2022-09-09T13:42:52;24.30;74.30
23147;DHT22;11742;53.532;-1.478;2022-09-09T13:45:21;24.30;74.20
23147;DHT22;11742;53.532;-1.478;2022-09-09T13:47:48;24.30;74.20
23147;DHT22;11742;53.532;-1.478;2022-09-09T13:50:28;24.30;74.10
23147;DHT22;11742;53.532;-1.478;2022-09-09T13:52:58;24.40;74.20
23147;DHT22;11742;53.532;-1.478;2022-09-09T13:55:27;24.30;74.10
23147;DHT22;11742;53.532;-1.478;2022-09-09T14:00:22;24.30;74.00
23147;DHT22;11742;53.532;-1.478;2022-09-09T14:02:49;24.40;73.90
23147;DHT22;11742;53.532;-1.478;2022-09-09T14:05:16;24.30;73.80
23147;DHT22;11742;53.532;-1.478;2022-09-09T14:07:43;24.30;73.60
23147;DHT22;11742;53.532;-1.478;2022-09-09T14:10:09;24.30;73.60
23147;DHT22;11742;53.532;-1.478;2022-09-09T14:12:35;24.30;73.60
23147;DHT22;11742;53.532;-1.478;2022-09-09T14:15:05;24.30;73.60
23147;DHT22;11742;53.532;-1.478;2022-09-09T14:17:31;24.30;73.70
23147;DHT22;11742;53.532;-1.478;2022-09-09T14:19:57;24.30;73.60
23147;DHT22;11742;53.532;-1.478;2022-09-09T14:22:24;24.30;73.60
23147;DHT22;11742;53.532;-1.478;2022-09-09T14:24:49;24.30;73.60
23147;DHT22;11742;53.532;-1.478;2022-09-09T14:27:16;24.30;73.70
23147;DHT22;11742;53.532;-1.478;2022-09-09T14:29:43;24.30;73.60
23147;DHT22;11742;53.532;-1.478;2022-09-09T14:32:10;24.30;73.70
23147;DHT22;11742;53.532;-1.478;2022-09-09T14:34:36;24.30;73.60
23147;DHT22;11742;53.532;-1.478;2022-09-09T14:37:02;24.20;73.50
23147;DHT22;11742;53.532;-1.478;2022-09-09T14:39:27;24.20;73.50
23147;DHT22;11742;53.532;-1.478;2022-09-09T14:41:53;24.20;73.40
23147;DHT22;11742;53.532;-1.478;2022-09-09T14:44:19;24.20;73.40
23147;DHT22;11742;53.532;-1.478;2022-09-09T14:46:44;24.20;73.40
23147;DHT22;11742;53.532;-1.478;2022-09-09T14:49:10;24.20;73.40
23147;DHT22;11742;53.532;-1.478;2022-09-09T14:51:38;24.20;73.40
23147;DHT22;11742;53.532;-1.478;2022-09-09T14:54:04;24.20;73.50
23147;DHT22;11742;53.532;-1.478;2022-09-09T14:56:32;24.20;73.40
23147;DHT22;11742;53.532;-1.478;2022-09-09T14:59:00;24.20;73.50
23147;DHT22;11742;53.532;-1.478;2022-09-09T15:01:27;24.20;73.60
23147;DHT22;11742;53.532;-1.478;2022-09-09T15:03:54;24.20;73.60
23147;DHT22;11742;53.532;-1.478;2022-09-09T15:06:22;24.20;73.60
23147;DHT22;11742;53.532;-1.478;2022-09-09T15:08:50;24.20;74.50
23147;DHT22;11742;53.532;-1.478;2022-09-09T15:11:16;24.20;73.70
23147;DHT22;11742;53.532;-1.478;2022-09-09T15:13:43;24.20;73.70
23147;DHT22;11742;53.532;-1.478;2022-09-09T15:16:12;24.30;73.80
23147;DHT22;11742;53.532;-1.478;2022-09-09T15:18:38;24.30;73.80
23147;DHT22;11742;53.532;-1.478;2022-09-09T15:21:13;24.30;73.80
23147;DHT22;11742;53.532;-1.478;2022-09-09T15:23:39;24.30;73.80
23147;DHT22;11742;53.532;-1.478;2022-09-09T15:26:06;24.30;73.70
23147;DHT22;11742;53.532;-1.478;2022-09-09T15:28:33;24.30;73.70
23147;DHT22;11742;53.532;-1.478;2022-09-09T15:31:11;24.30;73.60
23147;DHT22;11742;53.532;-1.478;2022-09-09T15:33:37;24.30;73.50
23147;DHT22;11742;53.532;-1.478;2022-09-09T15:36:23;24.30;73.40
23147;DHT22;11742;53.532;-1.478;2022-09-09T15:38:50;24.30;73.40
23147;DHT22;11742;53.532;-1.478;2022-09-09T15:41:17;24.30;73.20
23147;DHT22;11742;53.532;-1.478;2022-09-09T15:43:45;24.30;73.20
23147;DHT22;11742;53.532;-1.478;2022-09-09T15:48:44;24.30;73.10
23147;DHT22;11742;53.532;-1.478;2022-09-09T15:51:10;24.30;73.00
23147;DHT22;11742;53.532;-1.478;2022-09-09T15:53:37;24.20;72.90
23147;DHT22;11742;53.532;-1.478;2022-09-09T15:56:05;24.20;72.80
23147;DHT22;11742;53.532;-1.478;2022-09-09T15:58:35;24.20;72.80
23147;DHT22;11742;53.532;-1.478;2022-09-09T16:01:08;24.20;72.80
23147;DHT22;11742;53.532;-1.478;2022-09-09T16:03:36;24.20;72.70
23147;DHT22;11742;53.532;-1.478;2022-09-09T16:06:02;24.20;72.70
23147;DHT22;11742;53.532;-1.478;2022-09-09T16:08:39;24.20;72.70
23147;DHT22;11742;53.532;-1.478;2022-09-09T16:11:17;24.20;72.60
23147;DHT22;11742;53.532;-1.478;2022-09-09T16:13:45;24.10;72.50
23147;DHT22;11742;53.532;-1.478;2022-09-09T16:16:12;24.10;72.50
23147;DHT22;11742;53.532;-1.478;2022-09-09T16:18:43;24.10;72.50
23147;DHT22;11742;53.532;-1.478;2022-09-09T16:21:17;24.10;72.50
23147;DHT22;11742;53.532;-1.478;2022-09-09T16:23:44;24.10;72.50
23147;DHT22;11742;53.532;-1.478;2022-09-09T16:26:14;24.10;72.50
23147;DHT22;11742;53.532;-1.478;2022-09-09T16:28:40;24.10;72.50
23147;DHT22;11742;53.532;-1.478;2022-09-09T16:31:07;24.00;72.50
23147;DHT22;11742;53.532;-1.478;2022-09-09T16:33:33;24.00;72.40
23147;DHT22;11742;53.532;-1.478;2022-09-09T16:36:05;24.00;72.50
23147;DHT22;11742;53.532;-1.478;2022-09-09T16:38:32;24.10;72.50
23147;DHT22;11742;53.532;-1.478;2022-09-09T16:41:03;24.00;72.50
23147;DHT22;11742;53.532;-1.478;2022-09-09T16:43:30;24.00;72.50
23147;DHT22;11742;53.532;-1.478;2022-09-09T16:45:56;24.00;72.50
23147;DHT22;11742;53.532;-1.478;2022-09-09T16:48:22;24.00;72.50
23147;DHT22;11742;53.532;-1.478;2022-09-09T16:50:48;24.00;72.50
23147;DHT22;11742;53.532;-1.478;2022-09-09T16:53:14;24.00;72.50
23147;DHT22;11742;53.532;-1.478;2022-09-09T16:55:41;24.00;72.50
23147;DHT22;11742;53.532;-1.478;2022-09-09T16:58:15;24.00;72.50
23147;DHT22;11742;53.532;-1.478;2022-09-09T17:00:41;24.00;72.50
23147;DHT22;11742;53.532;-1.478;2022-09-09T17:03:14;23.90;72.50
23147;DHT22;11742;53.532;-1.478;2022-09-09T17:05:40;23.90;72.50
23147;DHT22;11742;53.532;-1.478;2022-09-09T17:08:06;23.90;72.50
23147;DHT22;11742;53.532;-1.478;2022-09-09T17:10:32;24.00;72.60
23147;DHT22;11742;53.532;-1.478;2022-09-09T17:12:58;23.90;72.50
23147;DHT22;11742;53.532;-1.478;2022-09-09T17:15:24;24.00;72.50
23147;DHT22;11742;53.532;-1.478;2022-09-09T17:17:50;23.90;72.60
23147;DHT22;11742;53.532;-1.478;2022-09-09T17:20:19;23.90;72.50
23147;DHT22;11742;53.532;-1.478;2022-09-09T17:22:45;23.90;72.50
23147;DHT22;11742;53.532;-1.478;2022-09-09T17:25:11;23.90;72.50
23147;DHT22;11742;53.532;-1.478;2022-09-09T17:27:37;23.90;72.50
23147;DHT22;11742;53.532;-1.478;2022-09-09T17:30:03;23.90;72.50
23147;DHT22;11742;53.532;-1.478;2022-09-09T17:32:29;23.90;72.50
23147;DHT22;11742;53.532;-1.478;2022-09-09T17:34:55;23.80;72.10
23147;DHT22;11742;53.532;-1.478;2022-09-09T17:37:21;23.60;72.10
23147;DHT22;11742;53.532;-1.478;2022-09-09T17:39:47;23.40;72.80
23147;DHT22;11742;53.532;-1.478;2022-09-09T17:42:12;23.30;73.50
23147;DHT22;11742;53.532;-1.478;2022-09-09T17:44:39;23.30;73.90